createdAt,value
2023-01-17T00:02:24.761Z,51.73
2023-01-17T00:04:53.904Z,51.77
2023-01-17T00:07:23.736Z,51.65
2023-01-17T00:09:52.226Z,51.74
2023-01-17T00:12:22.875Z,51.69
2023-01-17T00:14:53.259Z,51.73
2023-01-17T00:17:22.757Z,51.84
2023-01-17T00:19:52.088Z,51.77
2023-01-17T00:22:30.326Z,51.74
2023-01-17T00:24:58.453Z,51.68
2023-01-17T00:27:26.681Z,51.50
2023-01-17T00:29:54.886Z,51.29
2023-01-17T00:32:23.046Z,51.08
2023-01-17T00:34:51.626Z,51.17
2023-01-17T00:37:20.307Z,51.41
2023-01-17T00:39:48.500Z,51.82
2023-01-17T00:42:16.611Z,52.11
2023-01-17T00:44:45.397Z,52.31
2023-01-17T00:47:13.826Z,52.61
2023-01-17T00:49:43.599Z,53.00
2023-01-17T00:52:11.766Z,53.22
2023-01-17T00:54:39.892Z,53.79
2023-01-17T00:57:08.699Z,54.21
2023-01-17T00:59:37.309Z,54.29
2023-01-17T01:02:05.555Z,54.67
2023-01-17T01:04:33.999Z,54.88
2023-01-17T01:07:02.406Z,55.39
2023-01-17T01:09:31.078Z,55.41
2023-01-17T01:11:59.191Z,55.09
2023-01-17T01:14:27.373Z,54.94
2023-01-17T01:16:55.503Z,54.95
2023-01-17T01:19:24.249Z,54.85
2023-01-17T01:21:53.009Z,54.73
2023-01-17T01:24:21.594Z,54.65
2023-01-17T01:26:50.043Z,54.40
2023-01-17T01:29:18.415Z,55.16
2023-01-17T01:31:46.662Z,56.11
2023-01-17T01:34:14.769Z,56.42
2023-01-17T01:36:43.033Z,55.62
2023-01-17T01:39:11.210Z,55.29
2023-01-17T01:41:39.878Z,54.90
2023-01-17T01:44:48.296Z,55.21
2023-01-17T01:47:38.703Z,55.66
2023-01-17T01:50:10.746Z,56.63
2023-01-17T01:52:43.782Z,56.88
2023-01-17T01:55:18.175Z,56.87
2023-01-17T01:57:50.944Z,57.05
2023-01-17T02:00:24.904Z,56.98
2023-01-17T02:02:57.258Z,57.20
2023-01-17T02:05:29.495Z,57.13
2023-01-17T02:08:10.404Z,56.72
2023-01-17T02:10:41.367Z,56.77
2023-01-17T02:13:10.693Z,57.14
2023-01-17T02:15:47.956Z,58.03
2023-01-17T02:18:39.241Z,58.92
2023-01-17T02:21:29.637Z,58.74
2023-01-17T02:24:23.063Z,58.53
2023-01-17T02:27:03.605Z,58.37
2023-01-17T02:30:10.434Z,57.88
2023-01-17T02:32:52.820Z,57.16
2023-01-17T02:35:33.996Z,56.13
2023-01-17T02:38:17.530Z,55.77
2023-01-17T02:41:00.502Z,56.42
2023-01-17T02:43:29.079Z,56.87
2023-01-17T02:45:57.232Z,57.01
2023-01-17T02:48:30.150Z,57.10
2023-01-17T02:51:07.203Z,57.04
2023-01-17T02:53:57.431Z,56.74
2023-01-17T02:56:34.315Z,55.97
2023-01-17T02:59:30.096Z,55.14
2023-01-17T03:02:04.393Z,54.38
2023-01-17T03:04:48.790Z,53.99
2023-01-17T03:07:21.809Z,53.80
2023-01-17T03:09:55.157Z,53.64
2023-01-17T03:12:26.394Z,53.96
2023-01-17T03:14:55.104Z,54.79
2023-01-17T03:17:28.909Z,55.86
2023-01-17T03:19:57.120Z,56.36
2023-01-17T03:22:27.275Z,56.35
2023-01-17T03:24:55.395Z,56.33
2023-01-17T03:27:24.128Z,56.30
2023-01-17T03:29:53.162Z,56.35
2023-01-17T03:32:22.192Z,56.46
2023-01-17T03:34:50.608Z,56.32
2023-01-17T03:37:18.976Z,56.05
2023-01-17T03:39:47.163Z,55.61
2023-01-17T03:42:15.565Z,55.75
2023-01-17T03:44:43.727Z,55.77
2023-01-17T03:47:11.867Z,55.29
2023-01-17T03:49:40.652Z,53.95
2023-01-17T03:52:08.857Z,53.80
2023-01-17T03:54:38.012Z,53.71
2023-01-17T03:57:06.250Z,54.34
2023-01-17T03:59:34.663Z,54.59
2023-01-17T04:02:03.087Z,54.61
2023-01-17T04:04:31.491Z,54.52
2023-01-17T04:06:59.637Z,54.41
2023-01-17T04:09:28.009Z,54.31
2023-01-17T04:11:56.693Z,54.21
2023-01-17T04:14:24.888Z,54.11
2023-01-17T04:16:53.882Z,54.17
2023-01-17T04:19:22.809Z,54.65
2023-01-17T04:21:50.944Z,55.35
2023-01-17T04:24:19.101Z,56.21
2023-01-17T04:26:48.352Z,56.43
2023-01-17T04:29:17.327Z,56.30
2023-01-17T04:31:45.524Z,56.20
2023-01-17T04:34:14.378Z,56.82
2023-01-17T04:36:43.879Z,56.97
2023-01-17T04:39:12.623Z,56.38
2023-01-17T04:41:41.305Z,56.11
2023-01-17T04:44:09.815Z,56.18
2023-01-17T04:46:37.971Z,55.25
2023-01-17T04:49:06.375Z,55.81
2023-01-17T04:51:35.064Z,55.56
2023-01-17T04:54:04.235Z,55.07
2023-01-17T04:56:32.482Z,54.61
2023-01-17T04:59:00.696Z,54.52
2023-01-17T05:01:28.957Z,54.23
2023-01-17T05:03:57.217Z,54.85
2023-01-17T05:06:25.355Z,55.16
2023-01-17T05:08:53.453Z,54.85
2023-01-17T05:11:21.642Z,53.94
2023-01-17T05:13:49.806Z,53.15
2023-01-17T05:16:19.116Z,52.93
2023-01-17T05:18:47.682Z,53.11
2023-01-17T05:21:15.831Z,52.54
2023-01-17T05:23:43.880Z,51.79
2023-01-17T05:26:12.485Z,51.30
2023-01-17T05:28:40.581Z,51.27
2023-01-17T05:31:09.158Z,51.55
2023-01-17T05:33:37.873Z,51.50
2023-01-17T05:36:06.731Z,51.86
2023-01-17T05:38:34.897Z,52.39
2023-01-17T05:41:03.619Z,52.82
2023-01-17T05:43:31.720Z,53.76
2023-01-17T05:46:00.842Z,53.80
2023-01-17T05:48:29.116Z,53.53
2023-01-17T05:50:57.227Z,53.06
2023-01-17T05:53:25.536Z,52.92
2023-01-17T05:55:53.731Z,52.63
2023-01-17T05:58:22.927Z,52.69
2023-01-17T06:00:51.024Z,52.92
2023-01-17T06:03:19.558Z,53.97
2023-01-17T06:05:47.682Z,54.46
2023-01-17T06:08:15.834Z,54.04
2023-01-17T06:10:45.170Z,54.69
2023-01-17T06:13:14.131Z,55.01
2023-01-17T06:15:43.660Z,55.43
2023-01-17T06:18:15.506Z,55.81
2023-01-17T06:20:44.316Z,56.63
2023-01-17T06:23:14.505Z,55.93
2023-01-17T06:25:45.517Z,55.47
2023-01-17T06:28:16.433Z,54.85
2023-01-17T06:30:45.762Z,53.77
2023-01-17T06:33:15.010Z,53.15
2023-01-17T06:35:51.191Z,52.74
2023-01-17T06:38:20.556Z,52.50
2023-01-17T06:40:49.516Z,52.30
2023-01-17T06:43:17.957Z,51.56
2023-01-17T06:45:46.201Z,51.35
2023-01-17T06:48:14.590Z,51.54
2023-01-17T06:50:42.778Z,51.46
2023-01-17T06:53:11.196Z,51.05
2023-01-17T06:55:39.423Z,50.71
2023-01-17T06:58:09.888Z,50.42
2023-01-17T07:00:40.733Z,50.27
2023-01-17T07:03:21.915Z,49.82
2023-01-17T07:05:50.756Z,49.75
2023-01-17T07:08:20.508Z,50.14
2023-01-17T07:10:49.115Z,49.76
2023-01-17T07:13:17.712Z,49.65
2023-01-17T07:15:45.968Z,50.00
2023-01-17T07:18:14.208Z,50.04
2023-01-17T07:20:43.445Z,49.82
2023-01-17T07:23:11.601Z,49.69
2023-01-17T07:25:39.896Z,49.85
2023-01-17T07:28:08.514Z,49.11
2023-01-17T07:30:36.568Z,48.92
2023-01-17T07:33:04.873Z,48.97
2023-01-17T07:35:33.444Z,49.23
2023-01-17T07:38:01.602Z,49.44
2023-01-17T07:40:30.802Z,49.53
2023-01-17T07:43:02.532Z,49.75
2023-01-17T07:45:30.703Z,49.89
2023-01-17T07:47:58.839Z,49.76
2023-01-17T07:50:27.277Z,49.49
2023-01-17T07:52:56.507Z,48.83
2023-01-17T07:55:24.723Z,48.19
2023-01-17T07:57:53.189Z,47.08
2023-01-17T08:00:22.083Z,46.87
2023-01-17T08:02:50.241Z,46.95
2023-01-17T08:05:18.505Z,46.97
2023-01-17T08:07:47.103Z,46.22
2023-01-17T08:10:15.743Z,45.63
2023-01-17T08:12:50.589Z,45.12
2023-01-17T08:15:19.361Z,43.80
2023-01-17T08:17:49.744Z,41.54
2023-01-17T08:20:18.403Z,39.55
2023-01-17T08:22:47.116Z,37.72
2023-01-17T08:25:15.337Z,35.78
2023-01-17T08:27:44.359Z,34.64
2023-01-17T08:30:12.681Z,34.36
2023-01-17T08:32:40.936Z,34.48
2023-01-17T08:35:10.538Z,33.77
2023-01-17T08:37:38.990Z,33.08
2023-01-17T08:40:08.506Z,32.80
2023-01-17T08:42:36.895Z,31.60
2023-01-17T08:45:07.179Z,30.24
2023-01-17T08:47:35.987Z,28.89
2023-01-17T08:50:05.936Z,28.08
2023-01-17T08:52:34.472Z,27.75
2023-01-17T08:55:04.807Z,28.09
2023-01-17T08:57:34.085Z,28.93
2023-01-17T09:00:02.541Z,29.49
2023-01-17T09:02:30.813Z,30.95
2023-01-17T09:04:59.505Z,32.59
2023-01-17T09:07:38.774Z,34.02
2023-01-17T09:10:09.467Z,35.42
2023-01-17T09:12:48.011Z,37.27
2023-01-17T09:15:19.597Z,38.96
2023-01-17T09:17:48.395Z,40.57
2023-01-17T09:20:17.363Z,42.22
2023-01-17T09:22:46.231Z,43.14
2023-01-17T09:25:15.076Z,43.28
2023-01-17T09:27:47.314Z,43.60
2023-01-17T09:30:16.114Z,44.37
2023-01-17T09:32:44.609Z,45.15
2023-01-17T09:35:13.175Z,45.78
2023-01-17T09:37:41.367Z,45.87
2023-01-17T09:40:15.711Z,46.61
2023-01-17T09:42:43.912Z,47.11
2023-01-17T09:45:17.382Z,47.68
2023-01-17T09:47:49.952Z,47.86
2023-01-17T09:50:31.106Z,48.04
2023-01-17T09:53:04.091Z,48.02
2023-01-17T09:55:42.058Z,47.46
2023-01-17T09:58:16.780Z,46.80
2023-01-17T10:00:58.290Z,45.76
2023-01-17T10:03:56.056Z,45.31
2023-01-17T10:07:02.647Z,44.60
2023-01-17T10:09:52.428Z,44.92
2023-01-17T10:12:35.569Z,44.97
2023-01-17T10:15:35.931Z,44.60
2023-01-17T10:18:46.766Z,44.53
2023-01-17T10:21:48.349Z,43.75
2023-01-17T10:24:19.523Z,43.16
2023-01-17T10:26:57.662Z,43.03
2023-01-17T10:29:31.771Z,43.09
2023-01-17T10:32:01.754Z,42.70
2023-01-17T10:34:42.244Z,42.98
2023-01-17T10:37:39.816Z,43.00
2023-01-17T10:40:46.901Z,42.78
2023-01-17T10:43:45.961Z,42.19
2023-01-17T10:46:33.025Z,42.41
2023-01-17T10:49:02.670Z,42.09
2023-01-17T10:51:40.070Z,41.00
2023-01-17T10:54:24.053Z,39.89
2023-01-17T10:56:52.377Z,38.96
2023-01-17T10:59:40.786Z,38.48
2023-01-17T11:02:23.219Z,38.50
2023-01-17T11:04:55.996Z,38.77
2023-01-17T11:07:27.082Z,39.96
2023-01-17T11:09:57.585Z,40.46
2023-01-17T11:12:47.650Z,40.14
2023-01-17T11:15:21.124Z,40.00
2023-01-17T11:18:04.293Z,39.89
2023-01-17T11:20:38.404Z,37.56
2023-01-17T11:23:17.972Z,37.00
2023-01-17T11:25:55.185Z,37.08
2023-01-17T11:28:27.329Z,36.64
2023-01-17T11:30:58.448Z,34.65
2023-01-17T11:33:36.034Z,33.71
2023-01-17T11:36:04.559Z,33.00
2023-01-17T11:38:33.071Z,32.89
2023-01-17T11:41:10.709Z,32.73
2023-01-17T11:43:57.025Z,31.26
2023-01-17T11:46:26.531Z,30.04
2023-01-17T11:48:59.820Z,29.04
2023-01-17T11:51:40.866Z,27.35
2023-01-17T11:54:30.272Z,26.14
2023-01-17T11:57:01.435Z,24.72
2023-01-17T11:59:32.384Z,23.70
2023-01-17T12:02:19.311Z,23.46
2023-01-17T12:05:03.852Z,24.29
2023-01-17T12:07:41.156Z,25.15
2023-01-17T12:10:24.396Z,25.46
2023-01-17T12:12:55.944Z,25.29
2023-01-17T12:15:42.883Z,25.21
2023-01-17T12:18:57.835Z,25.61
2023-01-17T12:21:57.449Z,25.90
2023-01-17T12:25:06.564Z,25.92
2023-01-17T12:28:04.441Z,25.63
2023-01-17T12:30:59.109Z,25.93
2023-01-17T12:33:53.749Z,26.09
2023-01-17T12:36:22.000Z,26.28
2023-01-17T12:38:51.279Z,26.24
2023-01-17T12:41:29.234Z,26.05
2023-01-17T12:44:00.738Z,25.98
2023-01-17T12:46:32.058Z,25.70
2023-01-17T12:49:44.642Z,25.62
2023-01-17T12:52:25.444Z,25.44
2023-01-17T12:55:00.125Z,25.80
2023-01-17T12:57:35.452Z,26.13
2023-01-17T13:00:17.713Z,26.25
2023-01-17T13:03:23.070Z,26.35
2023-01-17T13:05:52.381Z,25.43
2023-01-17T13:08:43.822Z,24.86
2023-01-17T13:11:23.949Z,24.86
2023-01-17T13:13:52.569Z,25.01
2023-01-17T13:16:34.029Z,25.29
2023-01-17T13:19:28.709Z,25.07
2023-01-17T13:21:58.345Z,25.70
2023-01-17T13:24:34.485Z,25.86
2023-01-17T13:27:21.946Z,26.24
2023-01-17T13:30:14.319Z,26.87
2023-01-17T13:33:07.473Z,27.50
2023-01-17T13:36:19.300Z,27.74
2023-01-17T13:39:02.146Z,28.07
2023-01-17T13:41:42.729Z,28.71
2023-01-17T13:44:12.842Z,28.56
2023-01-17T13:47:00.812Z,27.89
2023-01-17T13:49:47.580Z,28.32
2023-01-17T13:52:19.020Z,28.26
2023-01-17T13:54:50.453Z,27.21
2023-01-17T13:57:25.009Z,27.03
2023-01-17T13:59:54.470Z,27.02
2023-01-17T14:02:39.137Z,26.71
2023-01-17T14:05:13.762Z,25.76
2023-01-17T14:07:48.548Z,25.66
2023-01-17T14:10:45.729Z,25.44
2023-01-17T14:13:37.880Z,25.00
2023-01-17T14:16:27.890Z,25.06
2023-01-17T14:18:57.018Z,25.19
2023-01-17T14:21:28.467Z,25.26
2023-01-17T14:24:05.413Z,25.02
2023-01-17T14:26:36.215Z,25.18
2023-01-17T14:29:42.200Z,25.22
2023-01-17T14:32:14.045Z,24.98
2023-01-17T14:34:46.012Z,25.03
2023-01-17T14:37:40.777Z,24.67
2023-01-17T14:40:24.907Z,24.11
2023-01-17T14:43:03.091Z,23.14
2023-01-17T14:45:34.228Z,22.79
2023-01-17T14:48:05.874Z,22.59
2023-01-17T14:50:39.233Z,22.58
2023-01-17T14:53:27.917Z,22.39
2023-01-17T14:56:01.287Z,22.31
2023-01-17T14:58:34.722Z,22.44
2023-01-17T15:01:14.056Z,22.34
2023-01-17T15:03:51.934Z,21.54
2023-01-17T15:06:29.041Z,21.72
2023-01-17T15:08:57.742Z,22.15
2023-01-17T15:11:30.102Z,22.70
2023-01-17T15:14:01.913Z,23.00
2023-01-17T15:16:33.972Z,23.33
2023-01-17T15:19:11.019Z,23.46
2023-01-17T15:21:41.041Z,23.70
2023-01-17T15:24:18.457Z,23.95
2023-01-17T15:26:47.443Z,24.37
2023-01-17T15:29:24.907Z,24.55
2023-01-17T15:31:58.841Z,24.80
2023-01-17T15:34:43.049Z,24.46
2023-01-17T15:37:29.442Z,24.54
2023-01-17T15:40:15.747Z,24.71
2023-01-17T15:42:47.679Z,24.88
2023-01-17T15:45:19.776Z,24.92
2023-01-17T15:47:48.351Z,25.03
2023-01-17T15:50:31.737Z,25.22
2023-01-17T15:53:06.580Z,24.80
2023-01-17T15:55:38.149Z,24.87
2023-01-17T15:58:24.724Z,24.81
2023-01-17T16:00:53.252Z,24.73
2023-01-17T16:03:30.208Z,24.84
2023-01-17T16:06:00.570Z,25.17
2023-01-17T16:08:36.368Z,25.32
2023-01-17T16:11:08.257Z,25.43
2023-01-17T16:13:38.820Z,25.27
2023-01-17T16:16:17.247Z,25.35
2023-01-17T16:18:47.769Z,25.60
2023-01-17T16:21:25.681Z,25.61
2023-01-17T16:23:54.955Z,25.85
2023-01-17T16:26:24.425Z,25.63
2023-01-17T16:28:53.440Z,25.78
2023-01-17T16:31:21.867Z,26.00
2023-01-17T16:33:50.792Z,26.29
2023-01-17T16:36:19.661Z,26.85
2023-01-17T16:38:50.472Z,27.31
2023-01-17T16:41:22.105Z,27.65
2023-01-17T16:44:00.258Z,27.92
2023-01-17T16:46:30.200Z,27.85
2023-01-17T16:49:01.882Z,28.04
2023-01-17T16:51:30.145Z,27.95
2023-01-17T16:53:58.547Z,28.00
2023-01-17T16:56:27.654Z,28.20
2023-01-17T16:58:55.907Z,28.34
2023-01-17T17:01:24.157Z,28.53
2023-01-17T17:03:52.623Z,28.75
2023-01-17T17:06:20.968Z,29.02
2023-01-17T17:08:49.341Z,29.34
2023-01-17T17:11:22.628Z,29.80
2023-01-17T17:13:51.912Z,30.21
2023-01-17T17:16:26.417Z,30.48
2023-01-17T17:18:57.921Z,30.59
2023-01-17T17:21:26.929Z,30.89
2023-01-17T17:23:57.573Z,31.13
2023-01-17T17:26:31.365Z,31.34
2023-01-17T17:29:00.685Z,31.42
2023-01-17T17:31:29.175Z,31.65
2023-01-17T17:34:00.434Z,31.92
2023-01-17T17:36:29.553Z,31.91
2023-01-17T17:38:58.661Z,32.15
2023-01-17T17:41:30.315Z,32.49
2023-01-17T17:44:01.195Z,32.79
2023-01-17T17:46:30.808Z,32.96
2023-01-17T17:49:00.003Z,33.26
2023-01-17T17:51:31.878Z,33.56
2023-01-17T17:54:06.027Z,33.81
2023-01-17T17:56:34.912Z,34.00
2023-01-17T17:59:05.147Z,34.13
2023-01-17T18:01:33.864Z,34.07
2023-01-17T18:04:03.316Z,34.23
2023-01-17T18:06:31.556Z,34.15
2023-01-17T18:09:01.584Z,34.13
2023-01-17T18:11:31.313Z,34.15
2023-01-17T18:14:01.590Z,33.81
2023-01-17T18:16:36.173Z,33.95
2023-01-17T18:19:06.041Z,33.77
2023-01-17T18:21:39.111Z,33.66
2023-01-17T18:24:10.940Z,33.54
2023-01-17T18:26:45.806Z,33.30
2023-01-17T18:29:15.555Z,33.30
2023-01-17T18:31:45.482Z,33.26
2023-01-17T18:34:16.430Z,33.07
2023-01-17T18:36:45.606Z,33.21
2023-01-17T18:39:19.655Z,33.10
2023-01-17T18:41:48.149Z,33.25
2023-01-17T18:44:17.065Z,33.14
2023-01-17T18:46:45.298Z,33.14
2023-01-17T18:49:15.338Z,33.13
2023-01-17T18:51:43.600Z,33.22
2023-01-17T18:54:12.190Z,33.41
2023-01-17T18:56:40.673Z,33.41
2023-01-17T18:59:13.992Z,33.42
2023-01-17T19:01:42.452Z,33.39
2023-01-17T19:04:12.209Z,33.39
2023-01-17T19:06:42.681Z,33.50
2023-01-17T19:09:13.011Z,33.54
2023-01-17T19:11:41.547Z,33.64
2023-01-17T19:14:11.620Z,33.70
2023-01-17T19:16:41.689Z,33.74
2023-01-17T19:19:12.924Z,33.54
2023-01-17T19:21:41.217Z,33.65
2023-01-17T19:24:11.470Z,33.62
2023-01-17T19:26:40.017Z,33.67
2023-01-17T19:29:09.538Z,33.76
2023-01-17T19:31:40.472Z,33.82
2023-01-17T19:34:09.144Z,33.73
2023-01-17T19:36:39.589Z,33.73
2023-01-17T19:39:08.970Z,33.73
2023-01-17T19:41:43.571Z,33.75
2023-01-17T19:44:13.564Z,33.77
2023-01-17T19:46:42.250Z,33.88
2023-01-17T19:49:11.060Z,33.74
2023-01-17T19:51:39.574Z,33.62
2023-01-17T19:54:07.883Z,34.00
2023-01-17T19:56:36.324Z,34.13
2023-01-17T19:59:04.868Z,34.12
2023-01-17T20:01:34.870Z,34.05
2023-01-17T20:04:04.395Z,33.84
2023-01-17T20:06:36.117Z,34.35
2023-01-17T20:09:06.649Z,34.18
2023-01-17T20:11:35.733Z,34.24
2023-01-17T20:14:04.609Z,34.50
2023-01-17T20:16:36.596Z,34.47
2023-01-17T20:19:05.212Z,34.68
2023-01-17T20:21:33.333Z,34.50
2023-01-17T20:24:01.972Z,35.04
2023-01-17T20:26:33.483Z,34.39
2023-01-17T20:29:04.490Z,34.72
2023-01-17T20:31:32.714Z,34.34
2023-01-17T20:34:00.934Z,34.32
2023-01-17T20:36:29.092Z,34.38
2023-01-17T20:38:57.491Z,34.59
2023-01-17T20:41:30.191Z,34.56
2023-01-17T20:44:00.331Z,34.58
2023-01-17T20:46:31.473Z,34.71
2023-01-17T20:48:59.920Z,34.71
2023-01-17T20:51:30.046Z,34.77
2023-01-17T20:54:00.202Z,34.85
2023-01-17T20:56:29.025Z,34.90
2023-01-17T20:58:57.166Z,35.27
2023-01-17T21:01:25.602Z,35.24
2023-01-17T21:03:54.044Z,35.26
2023-01-17T21:06:23.617Z,35.70
2023-01-17T21:08:52.571Z,35.84
2023-01-17T21:11:23.868Z,36.12
2023-01-17T21:13:52.104Z,36.20
2023-01-17T21:16:22.432Z,36.63
2023-01-17T21:18:51.894Z,36.79
2023-01-17T21:21:26.424Z,36.98
2023-01-17T21:23:56.845Z,37.17
2023-01-17T21:26:27.316Z,37.34
2023-01-17T21:28:56.008Z,37.60
2023-01-17T21:31:27.289Z,37.86
2023-01-17T21:34:03.658Z,38.05
2023-01-17T21:36:34.399Z,38.52
2023-01-17T21:39:11.461Z,38.84
2023-01-17T21:41:41.712Z,39.11
2023-01-17T21:44:16.298Z,39.13
2023-01-17T21:46:44.521Z,39.28
2023-01-17T21:49:12.843Z,39.43
2023-01-17T21:51:43.524Z,39.69
2023-01-17T21:54:12.117Z,39.82
2023-01-17T21:56:40.347Z,39.93
2023-01-17T21:59:08.387Z,40.11
2023-01-17T22:01:36.723Z,40.05
2023-01-17T22:04:05.105Z,40.33
2023-01-17T22:06:34.271Z,40.44
2023-01-17T22:09:03.744Z,40.45
2023-01-17T22:11:32.210Z,40.52
2023-01-17T22:14:00.891Z,40.60
2023-01-17T22:16:29.014Z,41.07
2023-01-17T22:18:57.719Z,40.94
2023-01-17T22:21:28.632Z,41.18
2023-01-17T22:23:59.431Z,41.50
2023-01-17T22:26:30.534Z,41.65
2023-01-17T22:29:02.165Z,41.90
2023-01-17T22:31:31.557Z,42.25
2023-01-17T22:34:02.480Z,42.32
2023-01-17T22:36:34.790Z,42.59
2023-01-17T22:39:03.025Z,42.63
2023-01-17T22:41:31.581Z,42.90
2023-01-17T22:44:01.147Z,43.03
2023-01-17T22:46:32.951Z,43.12
2023-01-17T22:49:01.579Z,43.36
2023-01-17T22:51:29.809Z,43.72
2023-01-17T22:54:00.583Z,43.59
2023-01-17T22:56:32.684Z,43.94
2023-01-17T22:59:01.724Z,43.62
2023-01-17T23:01:32.075Z,43.44
2023-01-17T23:04:04.785Z,43.53
2023-01-17T23:06:35.670Z,43.79
2023-01-17T23:09:07.988Z,43.75
2023-01-17T23:11:42.741Z,43.48
2023-01-17T23:14:14.070Z,43.42
2023-01-17T23:16:47.640Z,43.59
2023-01-17T23:19:16.130Z,43.54
2023-01-17T23:21:44.252Z,43.84
2023-01-17T23:24:13.319Z,44.39
2023-01-17T23:26:41.466Z,45.12
2023-01-17T23:29:09.542Z,45.53
2023-01-17T23:31:37.729Z,45.71
2023-01-17T23:34:07.192Z,45.79
2023-01-17T23:36:35.347Z,46.38
2023-01-17T23:39:03.560Z,46.70
2023-01-17T23:41:31.819Z,47.18
2023-01-17T23:44:00.031Z,47.11
2023-01-17T23:46:28.235Z,47.20
2023-01-17T23:48:56.823Z,47.50
2023-01-17T23:51:25.012Z,47.54
2023-01-17T23:53:53.339Z,47.67
2023-01-17T23:56:24.328Z,48.03
2023-01-17T23:58:53.000Z,48.42
